AAY74 KLAS-KRNO
Flight info
| Callsign | AAY74 |
|---|---|
| Flight time | 0h 55m |
| Altitude | 36000 |
| Route | JOHKR5 KENNO SCOLA1 |
| Aircraft | A320/M-SDE3FGHIRWY/LB1 |
Departure
| Time | 2026-05-07 17:29 |
|---|---|
| Airport | Harry Reid International Airport (KLAS) |
Arrival
| Time | 2026-05-07 18:25 |
|---|---|
| Airport | Reno Tahoe International Airport (KRNO) |
| Time | Latitude | Longitude | Altitude | Speed | Heading |
|---|---|---|---|---|---|
| 2026-05-07 16:52 | 36.08714 | -115.15312 | 2106 ft | 0 kts | 183° |
| 2026-05-07 17:14 | 36.08736 | -115.15309 | 2106 ft | 4 kts | 181° |
| 2026-05-07 17:15 | 36.08763 | -115.15308 | 2107 ft | 4 kts | 196° |
| 2026-05-07 17:15 | 36.08783 | -115.15293 | 2107 ft | 4 kts | 249° |
| 2026-05-07 17:15 | 36.08785 | -115.15277 | 2107 ft | 1 kts | 274° |
| 2026-05-07 17:15 | 36.08785 | -115.15275 | 2107 ft | 0 kts | 274° |
| 2026-05-07 17:18 | 36.08786 | -115.15287 | 2108 ft | 6 kts | 274° |
| 2026-05-07 17:18 | 36.08787 | -115.15345 | 2107 ft | 7 kts | 270° |
| 2026-05-07 17:18 | 36.08786 | -115.15442 | 2106 ft | 12 kts | 263° |
| 2026-05-07 17:19 | 36.08767 | -115.15524 | 2109 ft | 7 kts | 253° |
| 2026-05-07 17:19 | 36.08763 | -115.15560 | 2110 ft | 1 kts | 266° |
| 2026-05-07 17:19 | 36.08763 | -115.15562 | 2110 ft | 0 kts | 266° |
| 2026-05-07 17:19 | 36.08763 | -115.15567 | 2111 ft | 2 kts | 268° |
| 2026-05-07 17:20 | 36.08762 | -115.15609 | 2112 ft | 7 kts | 270° |
| 2026-05-07 17:20 | 36.08762 | -115.15690 | 2114 ft | 9 kts | 270° |
| 2026-05-07 17:20 | 36.08752 | -115.15754 | 2114 ft | 6 kts | 239° |
| 2026-05-07 17:20 | 36.08717 | -115.15785 | 2118 ft | 7 kts | 202° |
| 2026-05-07 17:21 | 36.08670 | -115.15787 | 2117 ft | 5 kts | 167° |
| 2026-05-07 17:21 | 36.08629 | -115.15767 | 2118 ft | 11 kts | 156° |
| 2026-05-07 17:21 | 36.08543 | -115.15717 | 2118 ft | 15 kts | 154° |
| 2026-05-07 17:21 | 36.08440 | -115.15657 | 2115 ft | 18 kts | 154° |
| 2026-05-07 17:22 | 36.08318 | -115.15587 | 2112 ft | 20 kts | 155° |
| 2026-05-07 17:22 | 36.08186 | -115.15510 | 2113 ft | 22 kts | 156° |
| 2026-05-07 17:22 | 36.08052 | -115.15434 | 2119 ft | 19 kts | 155° |
| 2026-05-07 17:22 | 36.07940 | -115.15370 | 2127 ft | 17 kts | 155° |
| 2026-05-07 17:23 | 36.07836 | -115.15309 | 2127 ft | 17 kts | 149° |
| 2026-05-07 17:23 | 36.07804 | -115.15171 | 2122 ft | 20 kts | 90° |
| 2026-05-07 17:23 | 36.07796 | -115.14990 | 2117 ft | 20 kts | 95° |
| 2026-05-07 17:23 | 36.07785 | -115.14811 | 2111 ft | 23 kts | 94° |
| 2026-05-07 17:24 | 36.07770 | -115.14599 | 2103 ft | 25 kts | 94° |
| 2026-05-07 17:24 | 36.07759 | -115.14428 | 2099 ft | 19 kts | 95° |
| 2026-05-07 17:24 | 36.07753 | -115.14250 | 2092 ft | 23 kts | 90° |
| 2026-05-07 17:24 | 36.07754 | -115.14037 | 2088 ft | 26 kts | 90° |
| 2026-05-07 17:25 | 36.07754 | -115.13805 | 2084 ft | 28 kts | 90° |
| 2026-05-07 17:25 | 36.07754 | -115.13550 | 2077 ft | 31 kts | 90° |
| 2026-05-07 17:25 | 36.07754 | -115.13284 | 2070 ft | 26 kts | 90° |
| 2026-05-07 17:25 | 36.07754 | -115.13057 | 2063 ft | 26 kts | 90° |
| 2026-05-07 17:26 | 36.07756 | -115.12830 | 2057 ft | 25 kts | 89° |
| 2026-05-07 17:26 | 36.07756 | -115.12621 | 2051 ft | 25 kts | 90° |
| 2026-05-07 17:26 | 36.07756 | -115.12402 | 2048 ft | 26 kts | 90° |
| 2026-05-07 17:26 | 36.07756 | -115.12216 | 2045 ft | 18 kts | 90° |
| 2026-05-07 17:27 | 36.07712 | -115.12126 | 2046 ft | 11 kts | 175° |
| 2026-05-07 17:27 | 36.07655 | -115.12126 | 2048 ft | 6 kts | 182° |
| 2026-05-07 17:27 | 36.07642 | -115.12151 | 2048 ft | 2 kts | 268° |
| 2026-05-07 17:27 | 36.07642 | -115.12153 | 2048 ft | 0 kts | 268° |
| 2026-05-07 17:28 | 36.07642 | -115.12312 | 2049 ft | 51 kts | 270° |
| 2026-05-07 17:28 | 36.07641 | -115.13040 | 2066 ft | 114 kts | 270° |
| 2026-05-07 17:29 | 36.07639 | -115.14249 | 2096 ft | 165 kts | 270° |
| 2026-05-07 17:29 | 36.07633 | -115.15773 | 2487 ft | 178 kts | 269° |
| 2026-05-07 17:29 | 36.07623 | -115.17305 | 3204 ft | 179 kts | 270° |
| 2026-05-07 17:29 | 36.07614 | -115.18889 | 3591 ft | 194 kts | 271° |
| 2026-05-07 17:30 | 36.07600 | -115.20634 | 3884 ft | 212 kts | 266° |
| 2026-05-07 17:30 | 36.07315 | -115.22509 | 4190 ft | 232 kts | 256° |
| 2026-05-07 17:30 | 36.06717 | -115.24457 | 4579 ft | 251 kts | 241° |
| 2026-05-07 17:30 | 36.05621 | -115.26168 | 5182 ft | 263 kts | 218° |
| 2026-05-07 17:31 | 36.03947 | -115.27247 | 5625 ft | 280 kts | 199° |
| 2026-05-07 17:31 | 36.02092 | -115.28044 | 6392 ft | 284 kts | 200° |
| 2026-05-07 17:31 | 36.00229 | -115.28894 | 7263 ft | 286 kts | 200° |
| 2026-05-07 17:31 | 35.98400 | -115.29863 | 7871 ft | 293 kts | 209° |
| 2026-05-07 17:32 | 35.96609 | -115.31070 | 8738 ft | 295 kts | 209° |
| 2026-05-07 17:32 | 35.94797 | -115.32272 | 9553 ft | 297 kts | 209° |
| 2026-05-07 17:32 | 35.92961 | -115.33477 | 10287 ft | 303 kts | 209° |
| 2026-05-07 17:32 | 35.91736 | -115.34325 | 10727 ft | 306 kts | 214° |
| 2026-05-07 17:33 | 35.89709 | -115.36779 | 11695 ft | 309 kts | 238° |
| 2026-05-07 17:33 | 35.88793 | -115.39196 | 12211 ft | 320 kts | 256° |
| 2026-05-07 17:33 | 35.88533 | -115.41990 | 12414 ft | 338 kts | 274° |
| 2026-05-07 17:33 | 35.88653 | -115.44926 | 12959 ft | 347 kts | 274° |
| 2026-05-07 17:34 | 35.88746 | -115.47932 | 13559 ft | 354 kts | 274° |
| 2026-05-07 17:34 | 35.88805 | -115.50988 | 14174 ft | 360 kts | 273° |
| 2026-05-07 17:34 | 35.88846 | -115.54085 | 14811 ft | 362 kts | 273° |
| 2026-05-07 17:34 | 35.88885 | -115.57199 | 15466 ft | 365 kts | 273° |
| 2026-05-07 17:35 | 35.88935 | -115.60370 | 15876 ft | 374 kts | 273° |
| 2026-05-07 17:35 | 35.88996 | -115.63599 | 16466 ft | 378 kts | 274° |
| 2026-05-07 17:35 | 35.89063 | -115.66853 | 17048 ft | 381 kts | 274° |
| 2026-05-07 17:35 | 35.89130 | -115.70091 | 17647 ft | 384 kts | 274° |
| 2026-05-07 17:36 | 35.89198 | -115.73393 | 18271 ft | 387 kts | 274° |
| 2026-05-07 17:36 | 35.89264 | -115.76719 | 18797 ft | 390 kts | 274° |
| 2026-05-07 17:36 | 35.89324 | -115.80078 | 19325 ft | 392 kts | 274° |
| 2026-05-07 17:36 | 35.89378 | -115.83453 | 19863 ft | 395 kts | 274° |
| 2026-05-07 17:37 | 35.89430 | -115.86856 | 20398 ft | 398 kts | 274° |
| 2026-05-07 17:37 | 35.89690 | -115.90249 | 20904 ft | 398 kts | 284° |
| 2026-05-07 17:37 | 35.90517 | -115.93496 | 21432 ft | 396 kts | 297° |
| 2026-05-07 17:37 | 35.91879 | -115.96440 | 21939 ft | 395 kts | 309° |
| 2026-05-07 17:38 | 35.93692 | -115.98971 | 22453 ft | 394 kts | 318° |
| 2026-05-07 17:38 | 35.95644 | -116.01365 | 22947 ft | 397 kts | 317° |
| 2026-05-07 17:38 | 35.97606 | -116.03774 | 23452 ft | 400 kts | 317° |
| 2026-05-07 17:38 | 35.99581 | -116.06208 | 23887 ft | 402 kts | 317° |
| 2026-05-07 17:39 | 36.01568 | -116.08663 | 24296 ft | 405 kts | 317° |
| 2026-05-07 17:39 | 36.02889 | -116.10296 | 24570 ft | 406 kts | 317° |
| 2026-05-07 17:39 | 36.05545 | -116.13581 | 25099 ft | 409 kts | 317° |
| 2026-05-07 17:39 | 36.07556 | -116.16072 | 25462 ft | 411 kts | 317° |
| 2026-05-07 17:40 | 36.09579 | -116.18580 | 25828 ft | 413 kts | 317° |
| 2026-05-07 17:40 | 36.11616 | -116.21110 | 26192 ft | 415 kts | 317° |
| 2026-05-07 17:40 | 36.12995 | -116.22822 | 26431 ft | 416 kts | 317° |
| 2026-05-07 17:40 | 36.15014 | -116.25330 | 26784 ft | 418 kts | 317° |
| 2026-05-07 17:41 | 36.17073 | -116.27886 | 27108 ft | 420 kts | 317° |
| 2026-05-07 17:41 | 36.19143 | -116.30456 | 27451 ft | 423 kts | 317° |
| 2026-05-07 17:41 | 36.21224 | -116.33047 | 27798 ft | 425 kts | 317° |
| 2026-05-07 17:41 | 36.23311 | -116.35651 | 28129 ft | 427 kts | 317° |
| 2026-05-07 17:42 | 36.25406 | -116.38268 | 28466 ft | 429 kts | 317° |
| 2026-05-07 17:42 | 36.27513 | -116.40896 | 28785 ft | 430 kts | 317° |
| 2026-05-07 17:42 | 36.29634 | -116.43523 | 29093 ft | 432 kts | 318° |
| 2026-05-07 17:42 | 36.31795 | -116.46127 | 29395 ft | 434 kts | 319° |
| 2026-05-07 17:43 | 36.33984 | -116.48714 | 29691 ft | 436 kts | 319° |
| 2026-05-07 17:43 | 36.36190 | -116.51301 | 29968 ft | 437 kts | 319° |
| 2026-05-07 17:43 | 36.38402 | -116.53902 | 30222 ft | 439 kts | 319° |
| 2026-05-07 17:43 | 36.40619 | -116.56523 | 30449 ft | 441 kts | 319° |
| 2026-05-07 17:44 | 36.42841 | -116.59166 | 30672 ft | 443 kts | 319° |
| 2026-05-07 17:44 | 36.45068 | -116.61820 | 30894 ft | 445 kts | 319° |
| 2026-05-07 17:44 | 36.47325 | -116.64455 | 31110 ft | 446 kts | 319° |
| 2026-05-07 17:44 | 36.49606 | -116.67058 | 31420 ft | 445 kts | 320° |
| 2026-05-07 17:45 | 36.51895 | -116.69636 | 31742 ft | 444 kts | 320° |
| 2026-05-07 17:45 | 36.54181 | -116.72200 | 32059 ft | 443 kts | 320° |
| 2026-05-07 17:45 | 36.56467 | -116.74772 | 32366 ft | 442 kts | 320° |
| 2026-05-07 17:45 | 36.58745 | -116.77349 | 32669 ft | 442 kts | 320° |
| 2026-05-07 17:46 | 36.61008 | -116.79924 | 32995 ft | 441 kts | 320° |
| 2026-05-07 17:46 | 36.63267 | -116.82508 | 33294 ft | 440 kts | 320° |
| 2026-05-07 17:46 | 36.65521 | -116.85091 | 33579 ft | 440 kts | 320° |
| 2026-05-07 17:46 | 36.67768 | -116.87668 | 33877 ft | 439 kts | 320° |
| 2026-05-07 17:47 | 36.70018 | -116.90247 | 34165 ft | 439 kts | 320° |
| 2026-05-07 17:47 | 36.72272 | -116.92814 | 34393 ft | 439 kts | 322° |
| 2026-05-07 17:47 | 36.74720 | -116.95050 | 34649 ft | 435 kts | 331° |
| 2026-05-07 17:47 | 36.77343 | -116.96811 | 34873 ft | 434 kts | 335° |
| 2026-05-07 17:48 | 36.80026 | -116.98535 | 35083 ft | 433 kts | 335° |
| 2026-05-07 17:48 | 36.82740 | -117.00287 | 35313 ft | 433 kts | 334° |
| 2026-05-07 17:48 | 36.85387 | -117.02000 | 35528 ft | 433 kts | 334° |
| 2026-05-07 17:48 | 36.88055 | -117.03734 | 35747 ft | 433 kts | 334° |
| 2026-05-07 17:49 | 36.90725 | -117.05473 | 35956 ft | 433 kts | 334° |
| 2026-05-07 17:49 | 36.93389 | -117.07210 | 36027 ft | 430 kts | 334° |
| 2026-05-07 17:49 | 36.98682 | -117.10665 | 36043 ft | 428 kts | 334° |
| 2026-05-07 17:50 | 37.03962 | -117.14103 | 36054 ft | 428 kts | 334° |
| 2026-05-07 17:50 | 37.09241 | -117.17541 | 36039 ft | 427 kts | 334° |
| 2026-05-07 17:51 | 37.14520 | -117.20986 | 36060 ft | 428 kts | 334° |
| 2026-05-07 17:51 | 37.19806 | -117.24452 | 36068 ft | 428 kts | 334° |
| 2026-05-07 17:52 | 37.25085 | -117.27918 | 36072 ft | 428 kts | 334° |
| 2026-05-07 17:52 | 37.30246 | -117.31561 | 36076 ft | 430 kts | 326° |
| 2026-05-07 17:53 | 37.34853 | -117.36388 | 36072 ft | 431 kts | 321° |
| 2026-05-07 17:53 | 37.39414 | -117.41280 | 36072 ft | 431 kts | 322° |
| 2026-05-07 17:54 | 37.43982 | -117.46170 | 36068 ft | 431 kts | 322° |
| 2026-05-07 17:54 | 37.48547 | -117.51060 | 36053 ft | 431 kts | 323° |
| 2026-05-07 17:55 | 37.53511 | -117.55220 | 36057 ft | 428 kts | 330° |
| 2026-05-07 17:55 | 37.58564 | -117.59204 | 36055 ft | 429 kts | 329° |
| 2026-05-07 17:56 | 37.63613 | -117.63207 | 36050 ft | 429 kts | 329° |
| 2026-05-07 17:56 | 37.68664 | -117.67222 | 36054 ft | 429 kts | 329° |
| 2026-05-07 17:57 | 37.72859 | -117.70563 | 36049 ft | 429 kts | 329° |
| 2026-05-07 17:57 | 37.78728 | -117.75229 | 36049 ft | 429 kts | 329° |
| 2026-05-07 17:58 | 37.83777 | -117.79257 | 36054 ft | 429 kts | 329° |
| 2026-05-07 17:58 | 37.88828 | -117.83289 | 36059 ft | 429 kts | 329° |
| 2026-05-07 17:59 | 37.93880 | -117.87324 | 36068 ft | 429 kts | 329° |
| 2026-05-07 17:59 | 37.98927 | -117.91368 | 36071 ft | 429 kts | 329° |
| 2026-05-07 18:00 | 38.03965 | -117.95399 | 36071 ft | 428 kts | 329° |
| 2026-05-07 18:00 | 38.09001 | -117.99453 | 36076 ft | 428 kts | 329° |
| 2026-05-07 18:01 | 38.14022 | -118.03503 | 36080 ft | 427 kts | 329° |
| 2026-05-07 18:01 | 38.19035 | -118.07541 | 36064 ft | 427 kts | 329° |
| 2026-05-07 18:02 | 38.26559 | -118.13614 | 36063 ft | 427 kts | 329° |
| 2026-05-07 18:03 | 38.31538 | -118.17657 | 36068 ft | 427 kts | 328° |
| 2026-05-07 18:03 | 38.36547 | -118.21729 | 36062 ft | 427 kts | 328° |
| 2026-05-07 18:04 | 38.41512 | -118.25883 | 36089 ft | 428 kts | 322° |
| 2026-05-07 18:04 | 38.43732 | -118.28425 | 35941 ft | 431 kts | 317° |
| 2026-05-07 18:04 | 38.45902 | -118.31093 | 35201 ft | 433 kts | 317° |
| 2026-05-07 18:04 | 38.48072 | -118.33772 | 34365 ft | 437 kts | 317° |
| 2026-05-07 18:05 | 38.50249 | -118.36465 | 33825 ft | 433 kts | 317° |
| 2026-05-07 18:05 | 38.52411 | -118.39141 | 33133 ft | 432 kts | 317° |
| 2026-05-07 18:05 | 38.54542 | -118.41780 | 32778 ft | 423 kts | 317° |
| 2026-05-07 18:05 | 38.56646 | -118.44384 | 32257 ft | 419 kts | 317° |
| 2026-05-07 18:06 | 38.58738 | -118.46968 | 31752 ft | 415 kts | 317° |
| 2026-05-07 18:06 | 38.60786 | -118.49500 | 31248 ft | 412 kts | 317° |
| 2026-05-07 18:06 | 38.62833 | -118.52035 | 30748 ft | 408 kts | 317° |
| 2026-05-07 18:06 | 38.64890 | -118.54586 | 30234 ft | 405 kts | 317° |
| 2026-05-07 18:07 | 38.66874 | -118.57053 | 29702 ft | 401 kts | 317° |
| 2026-05-07 18:07 | 38.68864 | -118.59536 | 29104 ft | 396 kts | 317° |
| 2026-05-07 18:07 | 38.70829 | -118.61985 | 28643 ft | 391 kts | 317° |
| 2026-05-07 18:07 | 38.72770 | -118.64404 | 28183 ft | 387 kts | 317° |
| 2026-05-07 18:08 | 38.74691 | -118.66800 | 27732 ft | 384 kts | 317° |
| 2026-05-07 18:08 | 38.76600 | -118.69174 | 27274 ft | 381 kts | 317° |
| 2026-05-07 18:08 | 38.78497 | -118.71526 | 26797 ft | 379 kts | 317° |
| 2026-05-07 18:08 | 38.80390 | -118.73875 | 26333 ft | 376 kts | 317° |
| 2026-05-07 18:09 | 38.82269 | -118.76213 | 25870 ft | 374 kts | 317° |
| 2026-05-07 18:09 | 38.84103 | -118.78499 | 25420 ft | 372 kts | 317° |
| 2026-05-07 18:09 | 38.85952 | -118.80807 | 24974 ft | 370 kts | 316° |
| 2026-05-07 18:09 | 38.87796 | -118.83111 | 24530 ft | 369 kts | 316° |
| 2026-05-07 18:10 | 38.89628 | -118.85400 | 24070 ft | 367 kts | 316° |
| 2026-05-07 18:10 | 38.91456 | -118.87684 | 23615 ft | 365 kts | 316° |
| 2026-05-07 18:10 | 38.93275 | -118.89958 | 23116 ft | 363 kts | 316° |
| 2026-05-07 18:10 | 38.95078 | -118.92215 | 22675 ft | 360 kts | 316° |
| 2026-05-07 18:11 | 38.96861 | -118.94451 | 22234 ft | 357 kts | 316° |
| 2026-05-07 18:11 | 38.98038 | -118.95926 | 21944 ft | 355 kts | 316° |
| 2026-05-07 18:11 | 39.00388 | -118.98873 | 21375 ft | 351 kts | 316° |
| 2026-05-07 18:11 | 39.02133 | -119.01063 | 20945 ft | 349 kts | 316° |
| 2026-05-07 18:12 | 39.03864 | -119.03239 | 20524 ft | 346 kts | 316° |
| 2026-05-07 18:12 | 39.05580 | -119.05400 | 20103 ft | 344 kts | 315° |
| 2026-05-07 18:12 | 39.07286 | -119.07549 | 19683 ft | 342 kts | 315° |
| 2026-05-07 18:12 | 39.08984 | -119.09689 | 19266 ft | 341 kts | 315° |
| 2026-05-07 18:13 | 39.10672 | -119.11818 | 18845 ft | 339 kts | 315° |
| 2026-05-07 18:13 | 39.12368 | -119.13960 | 18265 ft | 343 kts | 315° |
| 2026-05-07 18:13 | 39.14074 | -119.16112 | 17794 ft | 341 kts | 315° |
| 2026-05-07 18:13 | 39.15754 | -119.18230 | 17546 ft | 333 kts | 315° |
| 2026-05-07 18:14 | 39.17396 | -119.20302 | 17216 ft | 329 kts | 315° |
| 2026-05-07 18:14 | 39.19001 | -119.22331 | 16833 ft | 326 kts | 314° |
| 2026-05-07 18:14 | 39.20634 | -119.24400 | 16441 ft | 324 kts | 314° |
| 2026-05-07 18:14 | 39.22238 | -119.26430 | 16042 ft | 323 kts | 314° |
| 2026-05-07 18:15 | 39.23840 | -119.28454 | 15649 ft | 322 kts | 314° |
| 2026-05-07 18:15 | 39.25417 | -119.30448 | 15278 ft | 320 kts | 314° |
| 2026-05-07 18:15 | 39.27005 | -119.32459 | 14902 ft | 319 kts | 314° |
| 2026-05-07 18:15 | 39.28587 | -119.34460 | 14539 ft | 318 kts | 314° |
| 2026-05-07 18:16 | 39.30162 | -119.36451 | 14177 ft | 316 kts | 314° |
| 2026-05-07 18:16 | 39.31726 | -119.38437 | 13816 ft | 314 kts | 314° |
| 2026-05-07 18:16 | 39.33275 | -119.40406 | 13147 ft | 310 kts | 314° |
| 2026-05-07 18:16 | 39.34782 | -119.42319 | 12701 ft | 299 kts | 314° |
| 2026-05-07 18:17 | 39.36393 | -119.43966 | 12319 ft | 293 kts | 322° |
| 2026-05-07 18:17 | 39.38056 | -119.45499 | 11997 ft | 295 kts | 322° |
| 2026-05-07 18:17 | 39.39732 | -119.47065 | 11558 ft | 297 kts | 321° |
| 2026-05-07 18:17 | 39.41389 | -119.48619 | 11270 ft | 293 kts | 321° |
| 2026-05-07 18:18 | 39.43040 | -119.50169 | 10890 ft | 293 kts | 321° |
| 2026-05-07 18:18 | 39.44704 | -119.51737 | 10419 ft | 297 kts | 321° |
| 2026-05-07 18:18 | 39.46361 | -119.53294 | 10225 ft | 291 kts | 321° |
| 2026-05-07 18:18 | 39.47974 | -119.54802 | 10093 ft | 281 kts | 321° |
| 2026-05-07 18:19 | 39.49536 | -119.56259 | 10004 ft | 271 kts | 321° |
| 2026-05-07 18:19 | 39.51067 | -119.57691 | 9615 ft | 272 kts | 321° |
| 2026-05-07 18:19 | 39.52584 | -119.59116 | 9259 ft | 265 kts | 322° |
| 2026-05-07 18:19 | 39.54044 | -119.60484 | 8941 ft | 254 kts | 322° |
| 2026-05-07 18:20 | 39.55466 | -119.61818 | 8630 ft | 251 kts | 322° |
| 2026-05-07 18:20 | 39.56869 | -119.63138 | 8321 ft | 249 kts | 322° |
| 2026-05-07 18:20 | 39.58264 | -119.64451 | 8007 ft | 247 kts | 322° |
| 2026-05-07 18:20 | 39.59626 | -119.65781 | 7698 ft | 242 kts | 315° |
| 2026-05-07 18:21 | 39.60628 | -119.67430 | 7404 ft | 227 kts | 296° |
| 2026-05-07 18:21 | 39.61121 | -119.69304 | 7125 ft | 215 kts | 278° |
| 2026-05-07 18:21 | 39.61144 | -119.71167 | 6898 ft | 201 kts | 263° |
| 2026-05-07 18:21 | 39.60797 | -119.72861 | 6628 ft | 188 kts | 248° |
| 2026-05-07 18:22 | 39.60171 | -119.74279 | 6390 ft | 175 kts | 234° |
| 2026-05-07 18:22 | 39.59924 | -119.74673 | 6318 ft | 172 kts | 229° |
| 2026-05-07 18:22 | 39.58398 | -119.76195 | 5958 ft | 163 kts | 208° |
| 2026-05-07 18:22 | 39.57340 | -119.76705 | 5750 ft | 162 kts | 196° |
| 2026-05-07 18:23 | 39.56220 | -119.76905 | 5496 ft | 163 kts | 182° |
| 2026-05-07 18:23 | 39.55103 | -119.76892 | 5245 ft | 162 kts | 180° |
| 2026-05-07 18:23 | 39.53970 | -119.76877 | 5079 ft | 165 kts | 183° |
| 2026-05-07 18:23 | 39.52826 | -119.76905 | 4791 ft | 164 kts | 186° |
| 2026-05-07 18:24 | 39.51680 | -119.76924 | 4577 ft | 165 kts | 184° |
| 2026-05-07 18:24 | 39.50551 | -119.76921 | 4412 ft | 152 kts | 181° |
| 2026-05-07 18:24 | 39.49652 | -119.76929 | 4412 ft | 105 kts | 180° |
| 2026-05-07 18:24 | 39.49092 | -119.76927 | 4404 ft | 52 kts | 180° |
| 2026-05-07 18:25 | 39.48778 | -119.76927 | 4401 ft | 30 kts | 180° |
| 2026-05-07 18:25 | 39.48665 | -119.76948 | 4402 ft | 13 kts | 222° |
| 2026-05-07 18:25 | 39.48657 | -119.77052 | 4404 ft | 11 kts | 295° |
| 2026-05-07 18:25 | 39.48722 | -119.77071 | 4405 ft | 10 kts | 360° |
| 2026-05-07 18:26 | 39.48791 | -119.77072 | 4405 ft | 10 kts | 359° |
| 2026-05-07 18:26 | 39.48842 | -119.77072 | 4405 ft | 12 kts | 360° |
| 2026-05-07 18:26 | 39.48928 | -119.77071 | 4405 ft | 13 kts | 1° |
| 2026-05-07 18:26 | 39.49021 | -119.77071 | 4406 ft | 14 kts | 360° |
| 2026-05-07 18:27 | 39.49115 | -119.77070 | 4407 ft | 14 kts | 1° |
| 2026-05-07 18:27 | 39.49213 | -119.77072 | 4408 ft | 15 kts | 360° |
| 2026-05-07 18:27 | 39.49320 | -119.77071 | 4408 ft | 16 kts | 0° |
| 2026-05-07 18:27 | 39.49434 | -119.77070 | 4409 ft | 16 kts | 360° |
| 2026-05-07 18:28 | 39.49550 | -119.77071 | 4410 ft | 17 kts | 360° |
| 2026-05-07 18:28 | 39.49677 | -119.77072 | 4409 ft | 19 kts | 359° |
| 2026-05-07 18:28 | 39.49815 | -119.77072 | 4409 ft | 20 kts | 1° |
| 2026-05-07 18:28 | 39.49959 | -119.77070 | 4409 ft | 21 kts | 0° |
| 2026-05-07 18:29 | 39.50112 | -119.77071 | 4408 ft | 23 kts | 359° |
| 2026-05-07 18:29 | 39.50260 | -119.77071 | 4409 ft | 15 kts | 1° |
| 2026-05-07 18:29 | 39.50371 | -119.77068 | 4409 ft | 17 kts | 0° |
| 2026-05-07 18:29 | 39.50483 | -119.77067 | 4408 ft | 16 kts | 0° |
| 2026-05-07 18:30 | 39.50581 | -119.77079 | 4410 ft | 10 kts | 323° |
| 2026-05-07 18:30 | 39.50589 | -119.77165 | 4411 ft | 10 kts | 267° |
| 2026-05-07 18:30 | 39.50590 | -119.77259 | 4411 ft | 8 kts | 271° |
| 2026-05-07 18:30 | 39.50592 | -119.77295 | 4411 ft | 5 kts | 283° |
| 2026-05-07 18:31 | 39.50621 | -119.77317 | 4410 ft | 6 kts | 341° |
| 2026-05-07 18:31 | 39.50649 | -119.77323 | 4410 ft | 1 kts | 0° |
| 2026-05-07 18:31 | 39.50651 | -119.77323 | 4410 ft | 0 kts | 0° |